sensor_id;sensor_type;location;lat;lon;timestamp;temperature;humidity
50955;DHT22;36966;48.064;-0.792;2024-03-06T00:01:23;16.80;45.30
50955;DHT22;36966;48.064;-0.792;2024-03-06T00:03:42;16.80;45.40
50955;DHT22;36966;48.064;-0.792;2024-03-06T00:06:02;16.70;45.30
50955;DHT22;36966;48.064;-0.792;2024-03-06T00:08:21;16.70;45.30
50955;DHT22;36966;48.064;-0.792;2024-03-06T00:10:40;16.70;45.40
50955;DHT22;36966;48.064;-0.792;2024-03-06T00:12:59;16.70;45.50
50955;DHT22;36966;48.064;-0.792;2024-03-06T00:15:19;16.70;45.40
50955;DHT22;36966;48.064;-0.792;2024-03-06T00:17:38;16.70;45.50
50955;DHT22;36966;48.064;-0.792;2024-03-06T00:19:58;16.70;45.40
50955;DHT22;36966;48.064;-0.792;2024-03-06T00:22:17;16.70;45.50
50955;DHT22;36966;48.064;-0.792;2024-03-06T00:24:36;16.70;45.40
50955;DHT22;36966;48.064;-0.792;2024-03-06T00:26:56;16.70;45.50
50955;DHT22;36966;48.064;-0.792;2024-03-06T00:29:15;16.70;45.60
50955;DHT22;36966;48.064;-0.792;2024-03-06T00:31:34;16.70;45.70
50955;DHT22;36966;48.064;-0.792;2024-03-06T00:33:53;16.70;45.70
50955;DHT22;36966;48.064;-0.792;2024-03-06T00:36:12;16.70;45.70
50955;DHT22;36966;48.064;-0.792;2024-03-06T00:38:32;16.70;45.70
50955;DHT22;36966;48.064;-0.792;2024-03-06T00:40:51;16.70;45.70
50955;DHT22;36966;48.064;-0.792;2024-03-06T00:43:10;16.70;45.70
50955;DHT22;36966;48.064;-0.792;2024-03-06T00:45:30;16.70;45.70
50955;DHT22;36966;48.064;-0.792;2024-03-06T00:47:49;16.70;45.80
50955;DHT22;36966;48.064;-0.792;2024-03-06T00:50:08;16.70;45.70
50955;DHT22;36966;48.064;-0.792;2024-03-06T00:52:27;16.70;45.70
50955;DHT22;36966;48.064;-0.792;2024-03-06T00:54:47;16.70;45.70
50955;DHT22;36966;48.064;-0.792;2024-03-06T00:57:06;16.70;45.80
50955;DHT22;36966;48.064;-0.792;2024-03-06T00:59:25;16.70;45.70
50955;DHT22;36966;48.064;-0.792;2024-03-06T01:01:44;16.70;45.80
50955;DHT22;36966;48.064;-0.792;2024-03-06T01:04:03;16.70;45.80
50955;DHT22;36966;48.064;-0.792;2024-03-06T01:06:23;16.70;45.80
50955;DHT22;36966;48.064;-0.792;2024-03-06T01:08:42;16.70;45.80
50955;DHT22;36966;48.064;-0.792;2024-03-06T01:11:01;16.70;45.80
50955;DHT22;36966;48.064;-0.792;2024-03-06T01:13:20;16.70;45.90
50955;DHT22;36966;48.064;-0.792;2024-03-06T01:15:40;16.70;45.90
50955;DHT22;36966;48.064;-0.792;2024-03-06T01:17:59;16.70;45.90
50955;DHT22;36966;48.064;-0.792;2024-03-06T01:20:18;16.70;45.90
50955;DHT22;36966;48.064;-0.792;2024-03-06T01:22:37;16.70;45.90
50955;DHT22;36966;48.064;-0.792;2024-03-06T01:24:57;16.60;45.90
50955;DHT22;36966;48.064;-0.792;2024-03-06T01:27:16;16.60;46.00
50955;DHT22;36966;48.064;-0.792;2024-03-06T01:29:35;16.60;46.00
50955;DHT22;36966;48.064;-0.792;2024-03-06T01:31:55;16.60;45.80
50955;DHT22;36966;48.064;-0.792;2024-03-06T01:34:14;16.60;45.90
50955;DHT22;36966;48.064;-0.792;2024-03-06T01:36:33;16.60;45.80
50955;DHT22;36966;48.064;-0.792;2024-03-06T01:38:53;16.60;45.70
50955;DHT22;36966;48.064;-0.792;2024-03-06T01:41:12;16.60;45.70
50955;DHT22;36966;48.064;-0.792;2024-03-06T01:43:36;16.60;45.60
50955;DHT22;36966;48.064;-0.792;2024-03-06T01:45:55;16.60;45.70
50955;DHT22;36966;48.064;-0.792;2024-03-06T01:48:16;16.60;45.70
50955;DHT22;36966;48.064;-0.792;2024-03-06T01:50:35;16.60;45.80
50955;DHT22;36966;48.064;-0.792;2024-03-06T01:52:54;16.60;45.80
50955;DHT22;36966;48.064;-0.792;2024-03-06T01:55:14;16.60;45.70
50955;DHT22;36966;48.064;-0.792;2024-03-06T01:57:34;16.60;45.70
50955;DHT22;36966;48.064;-0.792;2024-03-06T01:59:53;16.60;45.70
50955;DHT22;36966;48.064;-0.792;2024-03-06T02:02:12;16.60;45.70
50955;DHT22;36966;48.064;-0.792;2024-03-06T02:04:31;16.60;45.70
50955;DHT22;36966;48.064;-0.792;2024-03-06T02:06:51;16.60;45.60
50955;DHT22;36966;48.064;-0.792;2024-03-06T02:09:10;16.60;45.60
50955;DHT22;36966;48.064;-0.792;2024-03-06T02:11:30;16.60;45.50
50955;DHT22;36966;48.064;-0.792;2024-03-06T02:13:50;16.60;45.50
50955;DHT22;36966;48.064;-0.792;2024-03-06T02:16:09;16.50;45.50
50955;DHT22;36966;48.064;-0.792;2024-03-06T02:18:29;16.50;45.50
50955;DHT22;36966;48.064;-0.792;2024-03-06T02:20:48;16.50;45.60
50955;DHT22;36966;48.064;-0.792;2024-03-06T02:23:09;16.50;45.50
50955;DHT22;36966;48.064;-0.792;2024-03-06T02:25:28;16.50;45.60
50955;DHT22;36966;48.064;-0.792;2024-03-06T02:27:48;16.50;45.50
50955;DHT22;36966;48.064;-0.792;2024-03-06T02:30:07;16.50;45.50
50955;DHT22;36966;48.064;-0.792;2024-03-06T02:32:26;16.50;45.50
50955;DHT22;36966;48.064;-0.792;2024-03-06T02:34:45;16.50;45.40
50955;DHT22;36966;48.064;-0.792;2024-03-06T02:37:05;16.50;45.40
50955;DHT22;36966;48.064;-0.792;2024-03-06T02:39:24;16.50;45.40
50955;DHT22;36966;48.064;-0.792;2024-03-06T02:41:44;16.50;45.30
50955;DHT22;36966;48.064;-0.792;2024-03-06T02:44:03;16.50;45.20
50955;DHT22;36966;48.064;-0.792;2024-03-06T02:46:22;16.50;45.30
50955;DHT22;36966;48.064;-0.792;2024-03-06T02:48:42;16.50;45.20
50955;DHT22;36966;48.064;-0.792;2024-03-06T02:51:01;16.50;45.30
50955;DHT22;36966;48.064;-0.792;2024-03-06T02:53:20;16.40;45.20
50955;DHT22;36966;48.064;-0.792;2024-03-06T02:55:39;16.40;45.30
50955;DHT22;36966;48.064;-0.792;2024-03-06T02:58:01;16.40;45.20
50955;DHT22;36966;48.064;-0.792;2024-03-06T03:00:21;16.40;45.20
50955;DHT22;36966;48.064;-0.792;2024-03-06T03:02:40;16.40;45.30
50955;DHT22;36966;48.064;-0.792;2024-03-06T03:05:00;16.40;45.20
50955;DHT22;36966;48.064;-0.792;2024-03-06T03:07:19;16.40;45.20
50955;DHT22;36966;48.064;-0.792;2024-03-06T03:09:38;16.40;45.00
50955;DHT22;36966;48.064;-0.792;2024-03-06T03:11:57;16.40;45.00
50955;DHT22;36966;48.064;-0.792;2024-03-06T03:14:17;16.30;45.00
50955;DHT22;36966;48.064;-0.792;2024-03-06T03:16:36;16.40;45.00
50955;DHT22;36966;48.064;-0.792;2024-03-06T03:18:56;16.40;44.90
50955;DHT22;36966;48.064;-0.792;2024-03-06T03:21:15;16.40;44.80
50955;DHT22;36966;48.064;-0.792;2024-03-06T03:23:37;16.40;44.90
50955;DHT22;36966;48.064;-0.792;2024-03-06T03:25:57;16.40;45.00
50955;DHT22;36966;48.064;-0.792;2024-03-06T03:28:16;16.40;45.00
50955;DHT22;36966;48.064;-0.792;2024-03-06T03:30:35;16.40;44.80
50955;DHT22;36966;48.064;-0.792;2024-03-06T03:32:55;16.30;44.90
50955;DHT22;36966;48.064;-0.792;2024-03-06T03:35:14;16.30;44.90
50955;DHT22;36966;48.064;-0.792;2024-03-06T03:37:33;16.30;45.00
50955;DHT22;36966;48.064;-0.792;2024-03-06T03:39:53;16.30;44.90
50955;DHT22;36966;48.064;-0.792;2024-03-06T03:42:12;16.30;44.80
50955;DHT22;36966;48.064;-0.792;2024-03-06T03:44:31;16.30;44.80
50955;DHT22;36966;48.064;-0.792;2024-03-06T03:46:50;16.30;44.70
50955;DHT22;36966;48.064;-0.792;2024-03-06T03:49:09;16.30;44.70
50955;DHT22;36966;48.064;-0.792;2024-03-06T03:51:29;16.30;44.70
50955;DHT22;36966;48.064;-0.792;2024-03-06T03:53:48;16.30;44.60
50955;DHT22;36966;48.064;-0.792;2024-03-06T03:56:10;16.30;44.70
50955;DHT22;36966;48.064;-0.792;2024-03-06T03:58:29;16.30;44.60
50955;DHT22;36966;48.064;-0.792;2024-03-06T04:00:48;16.30;44.70
50955;DHT22;36966;48.064;-0.792;2024-03-06T04:03:11;16.30;44.70
50955;DHT22;36966;48.064;-0.792;2024-03-06T04:05:30;16.30;44.70
50955;DHT22;36966;48.064;-0.792;2024-03-06T04:07:50;16.20;44.70
50955;DHT22;36966;48.064;-0.792;2024-03-06T04:10:10;16.20;44.60
50955;DHT22;36966;48.064;-0.792;2024-03-06T04:12:29;16.20;44.60
50955;DHT22;36966;48.064;-0.792;2024-03-06T04:14:49;16.20;44.60
50955;DHT22;36966;48.064;-0.792;2024-03-06T04:17:08;16.20;44.50
50955;DHT22;36966;48.064;-0.792;2024-03-06T04:19:28;16.20;44.50
50955;DHT22;36966;48.064;-0.792;2024-03-06T04:21:47;16.20;44.40
50955;DHT22;36966;48.064;-0.792;2024-03-06T04:24:06;16.20;44.50
50955;DHT22;36966;48.064;-0.792;2024-03-06T04:26:25;16.20;44.40
50955;DHT22;36966;48.064;-0.792;2024-03-06T04:28:44;16.20;44.50
50955;DHT22;36966;48.064;-0.792;2024-03-06T04:31:04;16.20;44.40
50955;DHT22;36966;48.064;-0.792;2024-03-06T04:33:23;16.20;44.40
50955;DHT22;36966;48.064;-0.792;2024-03-06T04:35:43;16.20;44.50
50955;DHT22;36966;48.064;-0.792;2024-03-06T04:38:02;16.20;44.60
50955;DHT22;36966;48.064;-0.792;2024-03-06T04:40:22;16.20;44.50
50955;DHT22;36966;48.064;-0.792;2024-03-06T04:42:47;16.20;44.50
50955;DHT22;36966;48.064;-0.792;2024-03-06T04:45:10;16.20;44.40
50955;DHT22;36966;48.064;-0.792;2024-03-06T04:47:30;16.20;44.40
50955;DHT22;36966;48.064;-0.792;2024-03-06T04:49:49;16.20;44.60
50955;DHT22;36966;48.064;-0.792;2024-03-06T04:52:09;16.00;42.60
50955;DHT22;36966;48.064;-0.792;2024-03-06T04:54:28;15.90;43.00
50955;DHT22;36966;48.064;-0.792;2024-03-06T04:56:48;15.90;43.70
50955;DHT22;36966;48.064;-0.792;2024-03-06T04:59:07;15.90;43.70
50955;DHT22;36966;48.064;-0.792;2024-03-06T05:01:26;16.00;43.70
50955;DHT22;36966;48.064;-0.792;2024-03-06T05:03:46;16.00;43.90
50955;DHT22;36966;48.064;-0.792;2024-03-06T05:06:05;15.90;43.80
50955;DHT22;36966;48.064;-0.792;2024-03-06T05:08:24;16.00;43.90
50955;DHT22;36966;48.064;-0.792;2024-03-06T05:10:43;16.00;43.90
50955;DHT22;36966;48.064;-0.792;2024-03-06T05:13:03;16.00;44.10
50955;DHT22;36966;48.064;-0.792;2024-03-06T05:15:22;16.00;43.90
50955;DHT22;36966;48.064;-0.792;2024-03-06T05:17:41;16.00;44.00
50955;DHT22;36966;48.064;-0.792;2024-03-06T05:20:01;15.90;43.90
50955;DHT22;36966;48.064;-0.792;2024-03-06T05:22:20;16.00;43.90
50955;DHT22;36966;48.064;-0.792;2024-03-06T05:24:40;16.00;44.00
50955;DHT22;36966;48.064;-0.792;2024-03-06T05:26:59;16.00;43.90
50955;DHT22;36966;48.064;-0.792;2024-03-06T05:29:18;16.00;43.90
50955;DHT22;36966;48.064;-0.792;2024-03-06T05:31:38;16.00;43.90
50955;DHT22;36966;48.064;-0.792;2024-03-06T05:33:57;16.00;44.00
50955;DHT22;36966;48.064;-0.792;2024-03-06T05:36:16;15.90;43.90
50955;DHT22;36966;48.064;-0.792;2024-03-06T05:38:36;15.90;43.90
50955;DHT22;36966;48.064;-0.792;2024-03-06T05:40:55;15.90;43.90
50955;DHT22;36966;48.064;-0.792;2024-03-06T05:43:14;15.90;44.00
50955;DHT22;36966;48.064;-0.792;2024-03-06T05:45:34;15.90;43.90
50955;DHT22;36966;48.064;-0.792;2024-03-06T05:47:53;15.90;44.00
50955;DHT22;36966;48.064;-0.792;2024-03-06T05:50:12;15.90;43.90
50955;DHT22;36966;48.064;-0.792;2024-03-06T05:52:32;15.90;43.90
50955;DHT22;36966;48.064;-0.792;2024-03-06T05:54:52;15.90;43.90
50955;DHT22;36966;48.064;-0.792;2024-03-06T05:57:11;15.90;43.80
50955;DHT22;36966;48.064;-0.792;2024-03-06T05:59:30;15.90;43.70
50955;DHT22;36966;48.064;-0.792;2024-03-06T06:01:50;15.90;43.80
50955;DHT22;36966;48.064;-0.792;2024-03-06T06:04:09;15.90;43.80
50955;DHT22;36966;48.064;-0.792;2024-03-06T06:06:28;15.80;43.80
50955;DHT22;36966;48.064;-0.792;2024-03-06T06:08:47;15.90;43.80
50955;DHT22;36966;48.064;-0.792;2024-03-06T06:11:06;15.90;43.70
50955;DHT22;36966;48.064;-0.792;2024-03-06T06:13:26;15.80;43.80
50955;DHT22;36966;48.064;-0.792;2024-03-06T06:15:45;15.80;43.80
50955;DHT22;36966;48.064;-0.792;2024-03-06T06:18:05;15.80;43.80
50955;DHT22;36966;48.064;-0.792;2024-03-06T06:20:25;15.80;43.80
50955;DHT22;36966;48.064;-0.792;2024-03-06T06:22:44;15.80;43.80
50955;DHT22;36966;48.064;-0.792;2024-03-06T06:25:03;15.80;43.70
50955;DHT22;36966;48.064;-0.792;2024-03-06T06:27:22;15.80;43.70
50955;DHT22;36966;48.064;-0.792;2024-03-06T06:29:44;15.80;43.60
50955;DHT22;36966;48.064;-0.792;2024-03-06T06:32:03;15.80;43.70
50955;DHT22;36966;48.064;-0.792;2024-03-06T06:34:22;15.80;43.70
50955;DHT22;36966;48.064;-0.792;2024-03-06T06:36:45;15.80;43.60
50955;DHT22;36966;48.064;-0.792;2024-03-06T06:39:05;15.80;43.60
50955;DHT22;36966;48.064;-0.792;2024-03-06T06:41:24;15.70;43.60
50955;DHT22;36966;48.064;-0.792;2024-03-06T06:43:43;15.80;43.60
50955;DHT22;36966;48.064;-0.792;2024-03-06T06:46:03;15.80;43.70
50955;DHT22;36966;48.064;-0.792;2024-03-06T06:48:24;15.70;43.70
50955;DHT22;36966;48.064;-0.792;2024-03-06T06:50:43;15.70;43.70
50955;DHT22;36966;48.064;-0.792;2024-03-06T06:53:03;15.70;43.60
50955;DHT22;36966;48.064;-0.792;2024-03-06T06:55:22;15.70;43.30
50955;DHT22;36966;48.064;-0.792;2024-03-06T06:57:43;15.80;42.90
50955;DHT22;36966;48.064;-0.792;2024-03-06T07:00:03;15.80;42.90
50955;DHT22;36966;48.064;-0.792;2024-03-06T07:02:29;15.80;42.80
50955;DHT22;36966;48.064;-0.792;2024-03-06T07:04:49;15.80;42.80
50955;DHT22;36966;48.064;-0.792;2024-03-06T07:07:08;15.80;42.70
50955;DHT22;36966;48.064;-0.792;2024-03-06T07:09:28;15.80;42.70
50955;DHT22;36966;48.064;-0.792;2024-03-06T07:11:48;15.80;42.60
50955;DHT22;36966;48.064;-0.792;2024-03-06T07:14:07;15.80;42.70
50955;DHT22;36966;48.064;-0.792;2024-03-06T07:16:26;15.80;42.60
50955;DHT22;36966;48.064;-0.792;2024-03-06T07:18:46;15.80;42.60
50955;DHT22;36966;48.064;-0.792;2024-03-06T07:21:05;15.80;42.60
50955;DHT22;36966;48.064;-0.792;2024-03-06T07:23:24;15.80;42.70
50955;DHT22;36966;48.064;-0.792;2024-03-06T07:25:44;15.80;42.60
50955;DHT22;36966;48.064;-0.792;2024-03-06T07:28:03;15.80;42.60
50955;DHT22;36966;48.064;-0.792;2024-03-06T07:30:23;15.80;42.60
50955;DHT22;36966;48.064;-0.792;2024-03-06T07:32:42;15.80;42.60
50955;DHT22;36966;48.064;-0.792;2024-03-06T07:35:01;15.80;42.60
50955;DHT22;36966;48.064;-0.792;2024-03-06T07:37:20;15.80;42.60
50955;DHT22;36966;48.064;-0.792;2024-03-06T07:39:40;15.80;42.50
50955;DHT22;36966;48.064;-0.792;2024-03-06T07:41:59;15.80;42.60
50955;DHT22;36966;48.064;-0.792;2024-03-06T07:44:18;15.80;42.60
50955;DHT22;36966;48.064;-0.792;2024-03-06T07:46:39;15.80;42.60
50955;DHT22;36966;48.064;-0.792;2024-03-06T07:48:58;15.80;42.60
50955;DHT22;36966;48.064;-0.792;2024-03-06T07:51:17;15.80;42.60
50955;DHT22;36966;48.064;-0.792;2024-03-06T07:53:37;15.90;42.60
50955;DHT22;36966;48.064;-0.792;2024-03-06T07:55:56;15.90;42.60
50955;DHT22;36966;48.064;-0.792;2024-03-06T07:58:15;15.90;42.60
50955;DHT22;36966;48.064;-0.792;2024-03-06T08:00:36;15.90;42.70
50955;DHT22;36966;48.064;-0.792;2024-03-06T08:02:55;16.00;42.70
50955;DHT22;36966;48.064;-0.792;2024-03-06T08:05:14;16.00;42.70
50955;DHT22;36966;48.064;-0.792;2024-03-06T08:07:33;16.00;42.70
50955;DHT22;36966;48.064;-0.792;2024-03-06T08:09:53;16.20;47.30
50955;DHT22;36966;48.064;-0.792;2024-03-06T08:12:13;16.60;47.40
50955;DHT22;36966;48.064;-0.792;2024-03-06T08:14:32;16.60;46.50
50955;DHT22;36966;48.064;-0.792;2024-03-06T08:16:51;16.60;46.30
50955;DHT22;36966;48.064;-0.792;2024-03-06T08:19:10;16.50;45.90
50955;DHT22;36966;48.064;-0.792;2024-03-06T08:21:30;16.50;45.70
50955;DHT22;36966;48.064;-0.792;2024-03-06T08:23:49;16.50;45.40
50955;DHT22;36966;48.064;-0.792;2024-03-06T08:26:09;16.50;45.30
50955;DHT22;36966;48.064;-0.792;2024-03-06T08:28:28;16.50;45.00
50955;DHT22;36966;48.064;-0.792;2024-03-06T08:30:48;16.50;45.00
50955;DHT22;36966;48.064;-0.792;2024-03-06T08:33:07;16.50;44.90
50955;DHT22;36966;48.064;-0.792;2024-03-06T08:35:26;16.50;44.80
50955;DHT22;36966;48.064;-0.792;2024-03-06T08:37:45;16.60;44.70
50955;DHT22;36966;48.064;-0.792;2024-03-06T08:40:05;16.60;44.70
50955;DHT22;36966;48.064;-0.792;2024-03-06T08:42:29;16.70;44.60
50955;DHT22;36966;48.064;-0.792;2024-03-06T08:44:48;16.70;44.50
50955;DHT22;36966;48.064;-0.792;2024-03-06T08:47:08;16.80;44.40
50955;DHT22;36966;48.064;-0.792;2024-03-06T08:49:27;16.90;44.40
50955;DHT22;36966;48.064;-0.792;2024-03-06T08:51:46;16.90;44.50
50955;DHT22;36966;48.064;-0.792;2024-03-06T08:54:06;17.00;44.40
50955;DHT22;36966;48.064;-0.792;2024-03-06T08:56:26;17.10;44.40
50955;DHT22;36966;48.064;-0.792;2024-03-06T08:58:45;17.20;44.40
50955;DHT22;36966;48.064;-0.792;2024-03-06T09:01:05;17.20;44.30
50955;DHT22;36966;48.064;-0.792;2024-03-06T09:03:24;17.20;44.40
50955;DHT22;36966;48.064;-0.792;2024-03-06T09:05:43;17.30;44.40
50955;DHT22;36966;48.064;-0.792;2024-03-06T09:08:03;17.40;44.30
50955;DHT22;36966;48.064;-0.792;2024-03-06T09:10:22;17.40;44.20
50955;DHT22;36966;48.064;-0.792;2024-03-06T09:12:41;17.40;44.20
50955;DHT22;36966;48.064;-0.792;2024-03-06T09:15:01;17.50;44.40
50955;DHT22;36966;48.064;-0.792;2024-03-06T09:17:21;17.50;44.10
50955;DHT22;36966;48.064;-0.792;2024-03-06T09:19:41;17.60;44.20
50955;DHT22;36966;48.064;-0.792;2024-03-06T09:22:00;17.60;44.10
50955;DHT22;36966;48.064;-0.792;2024-03-06T09:24:20;17.70;44.20
50955;DHT22;36966;48.064;-0.792;2024-03-06T09:26:40;17.70;44.20
50955;DHT22;36966;48.064;-0.792;2024-03-06T09:28:59;17.70;44.10
50955;DHT22;36966;48.064;-0.792;2024-03-06T09:31:18;17.70;44.10
50955;DHT22;36966;48.064;-0.792;2024-03-06T09:33:38;17.70;44.10
50955;DHT22;36966;48.064;-0.792;2024-03-06T09:35:58;17.80;44.10
50955;DHT22;36966;48.064;-0.792;2024-03-06T09:38:18;17.80;44.10
50955;DHT22;36966;48.064;-0.792;2024-03-06T09:40:37;17.90;44.10
50955;DHT22;36966;48.064;-0.792;2024-03-06T09:42:56;17.90;44.00
50955;DHT22;36966;48.064;-0.792;2024-03-06T09:45:17;18.00;44.00
50955;DHT22;36966;48.064;-0.792;2024-03-06T09:47:36;18.00;44.00
50955;DHT22;36966;48.064;-0.792;2024-03-06T09:49:57;18.00;44.00
50955;DHT22;36966;48.064;-0.792;2024-03-06T09:52:16;18.10;44.00
50955;DHT22;36966;48.064;-0.792;2024-03-06T09:54:36;18.20;44.00
50955;DHT22;36966;48.064;-0.792;2024-03-06T09:56:55;18.20;43.90
50955;DHT22;36966;48.064;-0.792;2024-03-06T09:59:16;18.30;43.80
50955;DHT22;36966;48.064;-0.792;2024-03-06T10:01:38;18.40;43.70
50955;DHT22;36966;48.064;-0.792;2024-03-06T10:03:59;18.50;43.70
50955;DHT22;36966;48.064;-0.792;2024-03-06T10:06:18;18.60;43.60
50955;DHT22;36966;48.064;-0.792;2024-03-06T10:08:41;18.60;43.60
50955;DHT22;36966;48.064;-0.792;2024-03-06T10:11:00;18.70;43.50
50955;DHT22;36966;48.064;-0.792;2024-03-06T10:13:23;18.70;43.60
50955;DHT22;36966;48.064;-0.792;2024-03-06T10:16:16;18.70;43.50
50955;DHT22;36966;48.064;-0.792;2024-03-06T10:18:31;18.80;43.50
50955;DHT22;36966;48.064;-0.792;2024-03-06T10:20:51;18.80;43.50
50955;DHT22;36966;48.064;-0.792;2024-03-06T10:23:12;18.80;43.70
50955;DHT22;36966;48.064;-0.792;2024-03-06T10:25:31;19.00;43.40
50955;DHT22;36966;48.064;-0.792;2024-03-06T10:30:22;19.40;43.70
50955;DHT22;36966;48.064;-0.792;2024-03-06T10:32:41;19.40;43.80
50955;DHT22;36966;48.064;-0.792;2024-03-06T10:35:03;19.40;43.70
50955;DHT22;36966;48.064;-0.792;2024-03-06T10:37:22;19.40;43.50
50955;DHT22;36966;48.064;-0.792;2024-03-06T10:39:43;19.40;43.20
50955;DHT22;36966;48.064;-0.792;2024-03-06T10:42:03;19.30;43.30
50955;DHT22;36966;48.064;-0.792;2024-03-06T10:44:25;19.20;43.30
50955;DHT22;36966;48.064;-0.792;2024-03-06T10:46:45;19.30;42.50
50955;DHT22;36966;48.064;-0.792;2024-03-06T10:49:07;19.50;42.20
50955;DHT22;36966;48.064;-0.792;2024-03-06T10:51:26;19.40;42.90
50955;DHT22;36966;48.064;-0.792;2024-03-06T10:53:46;19.60;43.00
50955;DHT22;36966;48.064;-0.792;2024-03-06T10:56:08;19.70;42.50
50955;DHT22;36966;48.064;-0.792;2024-03-06T10:58:28;19.70;42.30
50955;DHT22;36966;48.064;-0.792;2024-03-06T11:00:48;19.70;42.30
50955;DHT22;36966;48.064;-0.792;2024-03-06T11:03:09;19.70;41.70
50955;DHT22;36966;48.064;-0.792;2024-03-06T11:05:31;19.60;41.10
50955;DHT22;36966;48.064;-0.792;2024-03-06T11:07:50;19.70;41.60
50955;DHT22;36966;48.064;-0.792;2024-03-06T11:10:10;19.70;41.20
50955;DHT22;36966;48.064;-0.792;2024-03-06T11:12:35;19.60;41.50
50955;DHT22;36966;48.064;-0.792;2024-03-06T11:14:56;19.60;41.40
50955;DHT22;36966;48.064;-0.792;2024-03-06T11:17:15;19.70;41.20
50955;DHT22;36966;48.064;-0.792;2024-03-06T11:22:14;19.60;41.40
50955;DHT22;36966;48.064;-0.792;2024-03-06T11:24:34;19.60;41.10
50955;DHT22;36966;48.064;-0.792;2024-03-06T11:26:59;19.60;41.20
50955;DHT22;36966;48.064;-0.792;2024-03-06T11:29:18;19.50;41.20
50955;DHT22;36966;48.064;-0.792;2024-03-06T11:31:38;19.50;41.40
50955;DHT22;36966;48.064;-0.792;2024-03-06T11:33:57;19.50;41.30
50955;DHT22;36966;48.064;-0.792;2024-03-06T11:36:20;19.50;41.10
50955;DHT22;36966;48.064;-0.792;2024-03-06T11:38:40;19.40;41.20
50955;DHT22;36966;48.064;-0.792;2024-03-06T11:40:59;19.50;41.60
50955;DHT22;36966;48.064;-0.792;2024-03-06T11:43:25;19.70;41.90
50955;DHT22;36966;48.064;-0.792;2024-03-06T11:45:45;19.90;42.50
50955;DHT22;36966;48.064;-0.792;2024-03-06T11:48:05;19.80;41.40
50955;DHT22;36966;48.064;-0.792;2024-03-06T11:50:25;19.80;41.30
50955;DHT22;36966;48.064;-0.792;2024-03-06T11:52:45;19.70;41.00
50955;DHT22;36966;48.064;-0.792;2024-03-06T11:55:05;19.60;41.00
50955;DHT22;36966;48.064;-0.792;2024-03-06T11:57:24;19.50;40.80
50955;DHT22;36966;48.064;-0.792;2024-03-06T11:59:43;19.50;39.40
50955;DHT22;36966;48.064;-0.792;2024-03-06T12:02:04;19.50;40.20
50955;DHT22;36966;48.064;-0.792;2024-03-06T12:04:24;19.30;40.80
50955;DHT22;36966;48.064;-0.792;2024-03-06T12:06:44;19.40;40.70
50955;DHT22;36966;48.064;-0.792;2024-03-06T12:09:03;19.40;40.50
50955;DHT22;36966;48.064;-0.792;2024-03-06T12:11:22;19.40;40.50
50955;DHT22;36966;48.064;-0.792;2024-03-06T12:13:43;19.50;40.20
50955;DHT22;36966;48.064;-0.792;2024-03-06T12:16:07;19.40;40.10
50955;DHT22;36966;48.064;-0.792;2024-03-06T12:18:26;19.20;39.90
50955;DHT22;36966;48.064;-0.792;2024-03-06T12:20:45;19.20;40.30
50955;DHT22;36966;48.064;-0.792;2024-03-06T12:23:05;19.20;40.60
50955;DHT22;36966;48.064;-0.792;2024-03-06T12:25:26;19.10;40.70
50955;DHT22;36966;48.064;-0.792;2024-03-06T12:27:45;19.10;40.60
50955;DHT22;36966;48.064;-0.792;2024-03-06T12:30:08;19.10;40.70
50955;DHT22;36966;48.064;-0.792;2024-03-06T12:32:27;19.10;40.40
50955;DHT22;36966;48.064;-0.792;2024-03-06T12:34:58;19.10;40.10
50955;DHT22;36966;48.064;-0.792;2024-03-06T12:37:18;19.20;39.90
50955;DHT22;36966;48.064;-0.792;2024-03-06T12:39:37;19.10;39.90
50955;DHT22;36966;48.064;-0.792;2024-03-06T12:41:56;19.10;40.00
50955;DHT22;36966;48.064;-0.792;2024-03-06T12:44:16;19.10;40.00
50955;DHT22;36966;48.064;-0.792;2024-03-06T12:46:35;19.10;39.80
50955;DHT22;36966;48.064;-0.792;2024-03-06T12:48:54;19.10;39.20
50955;DHT22;36966;48.064;-0.792;2024-03-06T12:51:13;19.10;39.60
50955;DHT22;36966;48.064;-0.792;2024-03-06T12:53:33;19.20;39.60
50955;DHT22;36966;48.064;-0.792;2024-03-06T12:55:53;19.20;38.80
50955;DHT22;36966;48.064;-0.792;2024-03-06T12:58:13;19.20;38.90
50955;DHT22;36966;48.064;-0.792;2024-03-06T13:00:32;19.20;38.90
50955;DHT22;36966;48.064;-0.792;2024-03-06T13:02:52;19.20;38.60
50955;DHT22;36966;48.064;-0.792;2024-03-06T13:05:11;19.20;38.80
50955;DHT22;36966;48.064;-0.792;2024-03-06T13:07:30;19.10;39.10
50955;DHT22;36966;48.064;-0.792;2024-03-06T13:09:49;19.10;39.20
50955;DHT22;36966;48.064;-0.792;2024-03-06T13:12:09;19.10;39.40
50955;DHT22;36966;48.064;-0.792;2024-03-06T13:14:29;19.20;39.30
50955;DHT22;36966;48.064;-0.792;2024-03-06T13:16:49;19.20;39.50
50955;DHT22;36966;48.064;-0.792;2024-03-06T13:19:08;19.20;39.00
50955;DHT22;36966;48.064;-0.792;2024-03-06T13:21:30;19.20;39.10
50955;DHT22;36966;48.064;-0.792;2024-03-06T13:23:49;19.20;39.00
50955;DHT22;36966;48.064;-0.792;2024-03-06T13:26:09;19.20;39.00
50955;DHT22;36966;48.064;-0.792;2024-03-06T13:28:28;19.20;38.80
50955;DHT22;36966;48.064;-0.792;2024-03-06T13:30:48;19.10;38.90
50955;DHT22;36966;48.064;-0.792;2024-03-06T13:33:07;19.10;39.30
50955;DHT22;36966;48.064;-0.792;2024-03-06T13:35:26;19.10;39.00
50955;DHT22;36966;48.064;-0.792;2024-03-06T13:37:45;19.00;39.20
50955;DHT22;36966;48.064;-0.792;2024-03-06T13:40:05;19.00;39.40
50955;DHT22;36966;48.064;-0.792;2024-03-06T13:42:26;19.10;39.10
50955;DHT22;36966;48.064;-0.792;2024-03-06T13:44:46;19.00;38.40
50955;DHT22;36966;48.064;-0.792;2024-03-06T13:47:05;19.00;38.20
50955;DHT22;36966;48.064;-0.792;2024-03-06T13:49:39;19.00;38.20
50955;DHT22;36966;48.064;-0.792;2024-03-06T13:51:58;19.10;38.20
50955;DHT22;36966;48.064;-0.792;2024-03-06T13:54:18;19.10;38.20
50955;DHT22;36966;48.064;-0.792;2024-03-06T13:56:37;19.10;37.30
50955;DHT22;36966;48.064;-0.792;2024-03-06T13:58:56;19.10;37.60
50955;DHT22;36966;48.064;-0.792;2024-03-06T14:01:16;19.00;37.70
50955;DHT22;36966;48.064;-0.792;2024-03-06T14:03:35;19.00;37.90
50955;DHT22;36966;48.064;-0.792;2024-03-06T14:05:56;19.00;37.80
50955;DHT22;36966;48.064;-0.792;2024-03-06T14:08:15;19.00;37.90
50955;DHT22;36966;48.064;-0.792;2024-03-06T14:10:36;19.00;37.90
50955;DHT22;36966;48.064;-0.792;2024-03-06T14:12:56;18.90;36.90
50955;DHT22;36966;48.064;-0.792;2024-03-06T14:15:16;19.00;37.90
50955;DHT22;36966;48.064;-0.792;2024-03-06T14:17:37;19.00;37.90
50955;DHT22;36966;48.064;-0.792;2024-03-06T14:19:56;19.00;38.20
50955;DHT22;36966;48.064;-0.792;2024-03-06T14:25:09;19.00;38.50
50955;DHT22;36966;48.064;-0.792;2024-03-06T14:27:29;19.00;38.50
50955;DHT22;36966;48.064;-0.792;2024-03-06T14:29:48;19.00;38.50
50955;DHT22;36966;48.064;-0.792;2024-03-06T14:32:08;18.90;38.00
50955;DHT22;36966;48.064;-0.792;2024-03-06T14:34:27;18.80;38.60
50955;DHT22;36966;48.064;-0.792;2024-03-06T14:36:47;18.80;38.70